sensor_id;sensor_type;location;lat;lon;timestamp;temperature;humidity
22319;DHT22;11327;52.334;9.506;2023-05-23T00:02:15;16.90;99.90
22319;DHT22;11327;52.334;9.506;2023-05-23T00:05:36;17.00;99.90
22319;DHT22;11327;52.334;9.506;2023-05-23T00:08:56;17.00;99.90
22319;DHT22;11327;52.334;9.506;2023-05-23T00:12:17;17.00;99.90
22319;DHT22;11327;52.334;9.506;2023-05-23T00:15:42;16.90;99.90
22319;DHT22;11327;52.334;9.506;2023-05-23T00:19:03;16.70;99.90
22319;DHT22;11327;52.334;9.506;2023-05-23T00:22:24;16.50;99.90
22319;DHT22;11327;52.334;9.506;2023-05-23T00:25:44;16.50;99.90
22319;DHT22;11327;52.334;9.506;2023-05-23T00:29:10;16.40;99.90
22319;DHT22;11327;52.334;9.506;2023-05-23T00:32:33;16.30;99.90
22319;DHT22;11327;52.334;9.506;2023-05-23T00:35:55;16.20;99.90
22319;DHT22;11327;52.334;9.506;2023-05-23T00:39:15;16.20;99.90
22319;DHT22;11327;52.334;9.506;2023-05-23T00:42:40;16.10;99.90
22319;DHT22;11327;52.334;9.506;2023-05-23T00:46:01;16.10;99.90
22319;DHT22;11327;52.334;9.506;2023-05-23T00:49:23;15.90;99.90
22319;DHT22;11327;52.334;9.506;2023-05-23T00:52:44;15.90;99.90
22319;DHT22;11327;52.334;9.506;2023-05-23T00:56:06;15.90;99.90
22319;DHT22;11327;52.334;9.506;2023-05-23T00:59:26;15.80;99.90
22319;DHT22;11327;52.334;9.506;2023-05-23T01:02:47;15.80;99.90
22319;DHT22;11327;52.334;9.506;2023-05-23T01:06:10;15.80;99.90
22319;DHT22;11327;52.334;9.506;2023-05-23T01:09:31;15.80;99.90
22319;DHT22;11327;52.334;9.506;2023-05-23T01:20:08;15.60;99.90
22319;DHT22;11327;52.334;9.506;2023-05-23T01:27:47;15.60;99.90
22319;DHT22;11327;52.334;9.506;2023-05-23T01:31:10;15.50;99.90
22319;DHT22;11327;52.334;9.506;2023-05-23T01:34:34;15.50;99.90
22319;DHT22;11327;52.334;9.506;2023-05-23T01:37:55;15.60;99.90
22319;DHT22;11327;52.334;9.506;2023-05-23T01:41:16;15.60;99.90
22319;DHT22;11327;52.334;9.506;2023-05-23T01:44:37;15.50;99.90
22319;DHT22;11327;52.334;9.506;2023-05-23T01:47:59;15.40;99.90
22319;DHT22;11327;52.334;9.506;2023-05-23T01:51:22;15.40;99.90
22319;DHT22;11327;52.334;9.506;2023-05-23T01:54:43;15.30;99.90
22319;DHT22;11327;52.334;9.506;2023-05-23T01:58:04;15.30;99.90
22319;DHT22;11327;52.334;9.506;2023-05-23T02:01:25;15.20;99.90
22319;DHT22;11327;52.334;9.506;2023-05-23T02:04:48;15.20;99.90
22319;DHT22;11327;52.334;9.506;2023-05-23T02:08:08;15.20;99.90
22319;DHT22;11327;52.334;9.506;2023-05-23T02:11:29;15.00;99.90
22319;DHT22;11327;52.334;9.506;2023-05-23T02:14:50;15.10;99.90
22319;DHT22;11327;52.334;9.506;2023-05-23T02:18:14;15.00;99.90
22319;DHT22;11327;52.334;9.506;2023-05-23T02:21:35;15.00;99.90
22319;DHT22;11327;52.334;9.506;2023-05-23T02:24:55;15.00;99.90
22319;DHT22;11327;52.334;9.506;2023-05-23T02:28:16;14.90;99.90
22319;DHT22;11327;52.334;9.506;2023-05-23T02:31:37;14.90;99.90
22319;DHT22;11327;52.334;9.506;2023-05-23T02:34:58;14.90;99.90
22319;DHT22;11327;52.334;9.506;2023-05-23T02:38:19;14.90;99.90
22319;DHT22;11327;52.334;9.506;2023-05-23T02:41:40;14.90;99.90
22319;DHT22;11327;52.334;9.506;2023-05-23T02:45:00;14.90;99.90
22319;DHT22;11327;52.334;9.506;2023-05-23T02:48:21;14.90;99.90
22319;DHT22;11327;52.334;9.506;2023-05-23T02:51:42;15.00;99.90
22319;DHT22;11327;52.334;9.506;2023-05-23T02:55:03;14.90;99.90
22319;DHT22;11327;52.334;9.506;2023-05-23T02:58:24;15.00;99.90
22319;DHT22;11327;52.334;9.506;2023-05-23T03:01:45;15.00;99.90
22319;DHT22;11327;52.334;9.506;2023-05-23T03:05:06;15.00;99.90
22319;DHT22;11327;52.334;9.506;2023-05-23T03:08:27;15.00;99.90
22319;DHT22;11327;52.334;9.506;2023-05-23T03:11:48;15.00;99.90
22319;DHT22;11327;52.334;9.506;2023-05-23T03:15:09;14.90;99.90
22319;DHT22;11327;52.334;9.506;2023-05-23T03:18:30;14.90;99.90
22319;DHT22;11327;52.334;9.506;2023-05-23T03:21:50;14.90;99.90
22319;DHT22;11327;52.334;9.506;2023-05-23T03:25:11;14.90;99.90
22319;DHT22;11327;52.334;9.506;2023-05-23T03:28:32;14.70;99.90
22319;DHT22;11327;52.334;9.506;2023-05-23T03:31:53;14.80;99.90
22319;DHT22;11327;52.334;9.506;2023-05-23T03:35:14;14.90;99.90
22319;DHT22;11327;52.334;9.506;2023-05-23T03:38:35;14.70;99.90
22319;DHT22;11327;52.334;9.506;2023-05-23T03:41:55;14.70;99.90
22319;DHT22;11327;52.334;9.506;2023-05-23T03:45:16;14.70;99.90
22319;DHT22;11327;52.334;9.506;2023-05-23T03:48:37;14.60;99.90
22319;DHT22;11327;52.334;9.506;2023-05-23T03:51:58;14.60;99.90
22319;DHT22;11327;52.334;9.506;2023-05-23T03:55:21;14.60;99.90
22319;DHT22;11327;52.334;9.506;2023-05-23T03:58:42;14.60;99.90
22319;DHT22;11327;52.334;9.506;2023-05-23T04:02:02;14.60;99.90
22319;DHT22;11327;52.334;9.506;2023-05-23T04:05:23;14.60;99.90
22319;DHT22;11327;52.334;9.506;2023-05-23T04:08:44;14.60;99.90
22319;DHT22;11327;52.334;9.506;2023-05-23T04:12:05;14.70;99.90
22319;DHT22;11327;52.334;9.506;2023-05-23T04:15:28;14.60;99.90
22319;DHT22;11327;52.334;9.506;2023-05-23T04:18:49;14.80;99.90
22319;DHT22;11327;52.334;9.506;2023-05-23T04:22:11;14.60;99.90
22319;DHT22;11327;52.334;9.506;2023-05-23T04:25:31;14.60;99.90
22319;DHT22;11327;52.334;9.506;2023-05-23T04:28:53;14.60;99.90
22319;DHT22;11327;52.334;9.506;2023-05-23T04:32:14;14.60;99.90
22319;DHT22;11327;52.334;9.506;2023-05-23T04:35:36;14.70;99.90
22319;DHT22;11327;52.334;9.506;2023-05-23T04:38:59;14.60;99.90
22319;DHT22;11327;52.334;9.506;2023-05-23T04:42:19;14.60;99.90
22319;DHT22;11327;52.334;9.506;2023-05-23T04:45:42;14.50;99.90
22319;DHT22;11327;52.334;9.506;2023-05-23T04:49:03;14.50;99.90
22319;DHT22;11327;52.334;9.506;2023-05-23T04:52:24;14.50;99.90
22319;DHT22;11327;52.334;9.506;2023-05-23T04:55:44;14.50;99.90
22319;DHT22;11327;52.334;9.506;2023-05-23T04:59:05;14.50;99.90
22319;DHT22;11327;52.334;9.506;2023-05-23T05:02:28;14.40;99.90
22319;DHT22;11327;52.334;9.506;2023-05-23T05:05:51;14.40;99.90
22319;DHT22;11327;52.334;9.506;2023-05-23T05:09:12;14.30;99.90
22319;DHT22;11327;52.334;9.506;2023-05-23T05:12:33;14.40;99.90
22319;DHT22;11327;52.334;9.506;2023-05-23T05:15:54;14.40;99.90
22319;DHT22;11327;52.334;9.506;2023-05-23T05:19:14;14.40;99.90
22319;DHT22;11327;52.334;9.506;2023-05-23T05:22:40;14.40;99.90
22319;DHT22;11327;52.334;9.506;2023-05-23T05:26:02;14.30;99.90
22319;DHT22;11327;52.334;9.506;2023-05-23T05:29:24;14.20;99.90
22319;DHT22;11327;52.334;9.506;2023-05-23T05:32:46;14.40;99.90
22319;DHT22;11327;52.334;9.506;2023-05-23T05:36:07;14.40;99.90
22319;DHT22;11327;52.334;9.506;2023-05-23T05:39:28;14.40;99.90
22319;DHT22;11327;52.334;9.506;2023-05-23T05:42:48;14.40;99.90
22319;DHT22;11327;52.334;9.506;2023-05-23T05:46:10;14.40;99.90
22319;DHT22;11327;52.334;9.506;2023-05-23T05:49:31;14.40;99.90
22319;DHT22;11327;52.334;9.506;2023-05-23T05:52:51;14.40;99.90
22319;DHT22;11327;52.334;9.506;2023-05-23T05:56:12;14.40;99.90
22319;DHT22;11327;52.334;9.506;2023-05-23T05:59:33;14.40;99.90
22319;DHT22;11327;52.334;9.506;2023-05-23T06:02:54;14.40;99.90
22319;DHT22;11327;52.334;9.506;2023-05-23T06:06:16;14.40;99.90
22319;DHT22;11327;52.334;9.506;2023-05-23T06:09:37;14.40;99.90
22319;DHT22;11327;52.334;9.506;2023-05-23T06:12:58;14.40;99.90
22319;DHT22;11327;52.334;9.506;2023-05-23T06:16:19;14.50;99.90
22319;DHT22;11327;52.334;9.506;2023-05-23T06:19:40;14.40;99.90
22319;DHT22;11327;52.334;9.506;2023-05-23T06:23:01;14.40;99.90
22319;DHT22;11327;52.334;9.506;2023-05-23T06:26:23;14.50;99.90
22319;DHT22;11327;52.334;9.506;2023-05-23T06:29:44;14.60;99.90
22319;DHT22;11327;52.334;9.506;2023-05-23T06:33:04;14.30;99.90
22319;DHT22;11327;52.334;9.506;2023-05-23T06:36:25;14.50;99.90
22319;DHT22;11327;52.334;9.506;2023-05-23T06:39:46;14.40;99.90
22319;DHT22;11327;52.334;9.506;2023-05-23T06:43:07;14.30;99.90
22319;DHT22;11327;52.334;9.506;2023-05-23T06:46:27;14.30;99.90
22319;DHT22;11327;52.334;9.506;2023-05-23T06:49:48;14.20;99.90
22319;DHT22;11327;52.334;9.506;2023-05-23T06:53:09;14.20;99.90
22319;DHT22;11327;52.334;9.506;2023-05-23T06:56:30;14.20;99.90
22319;DHT22;11327;52.334;9.506;2023-05-23T06:59:50;14.30;99.90
22319;DHT22;11327;52.334;9.506;2023-05-23T07:03:11;14.20;99.90
22319;DHT22;11327;52.334;9.506;2023-05-23T07:06:32;14.20;99.90
22319;DHT22;11327;52.334;9.506;2023-05-23T07:09:54;14.10;99.90
22319;DHT22;11327;52.334;9.506;2023-05-23T07:13:15;14.10;99.90
22319;DHT22;11327;52.334;9.506;2023-05-23T07:16:36;14.10;99.90
22319;DHT22;11327;52.334;9.506;2023-05-23T07:19:56;14.10;99.90
22319;DHT22;11327;52.334;9.506;2023-05-23T07:23:17;14.20;99.90
22319;DHT22;11327;52.334;9.506;2023-05-23T07:26:38;14.10;99.90
22319;DHT22;11327;52.334;9.506;2023-05-23T07:29:59;14.10;99.90
22319;DHT22;11327;52.334;9.506;2023-05-23T07:33:19;14.00;99.90
22319;DHT22;11327;52.334;9.506;2023-05-23T07:36:40;14.00;99.90
22319;DHT22;11327;52.334;9.506;2023-05-23T07:40:03;13.90;99.90
22319;DHT22;11327;52.334;9.506;2023-05-23T07:43:24;14.00;99.90
22319;DHT22;11327;52.334;9.506;2023-05-23T07:46:44;14.00;99.90
22319;DHT22;11327;52.334;9.506;2023-05-23T07:50:06;13.80;99.90
22319;DHT22;11327;52.334;9.506;2023-05-23T07:53:27;13.90;99.90
22319;DHT22;11327;52.334;9.506;2023-05-23T07:56:48;13.80;99.90
22319;DHT22;11327;52.334;9.506;2023-05-23T08:00:09;13.80;99.90
22319;DHT22;11327;52.334;9.506;2023-05-23T08:03:31;13.90;99.90
22319;DHT22;11327;52.334;9.506;2023-05-23T08:06:52;13.70;99.90
22319;DHT22;11327;52.334;9.506;2023-05-23T08:10:13;13.80;99.90
22319;DHT22;11327;52.334;9.506;2023-05-23T08:13:34;13.70;99.90
22319;DHT22;11327;52.334;9.506;2023-05-23T08:16:55;13.70;99.90
22319;DHT22;11327;52.334;9.506;2023-05-23T08:20:15;13.60;99.90
22319;DHT22;11327;52.334;9.506;2023-05-23T08:23:36;13.50;99.90
22319;DHT22;11327;52.334;9.506;2023-05-23T08:26:57;13.50;99.90
22319;DHT22;11327;52.334;9.506;2023-05-23T08:30:18;13.50;99.90
22319;DHT22;11327;52.334;9.506;2023-05-23T08:33:39;13.40;99.90
22319;DHT22;11327;52.334;9.506;2023-05-23T08:37:00;13.40;99.90
22319;DHT22;11327;52.334;9.506;2023-05-23T08:40:21;13.30;99.90
22319;DHT22;11327;52.334;9.506;2023-05-23T08:43:42;13.40;99.90
22319;DHT22;11327;52.334;9.506;2023-05-23T08:47:03;13.30;99.90
22319;DHT22;11327;52.334;9.506;2023-05-23T08:50:27;13.30;99.90
22319;DHT22;11327;52.334;9.506;2023-05-23T08:53:48;13.20;99.90
22319;DHT22;11327;52.334;9.506;2023-05-23T08:57:10;13.20;99.90
22319;DHT22;11327;52.334;9.506;2023-05-23T09:00:32;13.10;99.90
22319;DHT22;11327;52.334;9.506;2023-05-23T09:03:54;13.00;99.90
22319;DHT22;11327;52.334;9.506;2023-05-23T09:07:17;13.00;99.90
22319;DHT22;11327;52.334;9.506;2023-05-23T09:10:38;13.00;99.90
22319;DHT22;11327;52.334;9.506;2023-05-23T09:14:00;13.00;99.90
22319;DHT22;11327;52.334;9.506;2023-05-23T09:17:20;12.90;99.90
22319;DHT22;11327;52.334;9.506;2023-05-23T09:20:43;12.90;99.90
22319;DHT22;11327;52.334;9.506;2023-05-23T09:24:04;12.90;99.90
22319;DHT22;11327;52.334;9.506;2023-05-23T09:27:25;12.80;99.90
22319;DHT22;11327;52.334;9.506;2023-05-23T09:30:46;12.80;99.90
22319;DHT22;11327;52.334;9.506;2023-05-23T09:34:07;12.80;99.90
22319;DHT22;11327;52.334;9.506;2023-05-23T09:37:32;12.70;99.90
22319;DHT22;11327;52.334;9.506;2023-05-23T09:40:54;13.30;99.90
22319;DHT22;11327;52.334;9.506;2023-05-23T09:44:21;12.60;99.90
22319;DHT22;11327;52.334;9.506;2023-05-23T09:47:50;12.70;99.90
22319;DHT22;11327;52.334;9.506;2023-05-23T09:51:12;12.70;99.90
22319;DHT22;11327;52.334;9.506;2023-05-23T09:54:32;12.60;99.90
22319;DHT22;11327;52.334;9.506;2023-05-23T09:57:54;12.70;99.90
22319;DHT22;11327;52.334;9.506;2023-05-23T10:01:17;12.70;99.90
22319;DHT22;11327;52.334;9.506;2023-05-23T10:04:39;12.90;99.90
22319;DHT22;11327;52.334;9.506;2023-05-23T10:08:13;12.70;99.90
22319;DHT22;11327;52.334;9.506;2023-05-23T10:15:01;12.70;99.90
22319;DHT22;11327;52.334;9.506;2023-05-23T10:18:24;12.70;99.90
22319;DHT22;11327;52.334;9.506;2023-05-23T10:21:54;12.60;99.90
22319;DHT22;11327;52.334;9.506;2023-05-23T10:25:14;12.60;99.90
22319;DHT22;11327;52.334;9.506;2023-05-23T10:28:35;12.60;99.90
22319;DHT22;11327;52.334;9.506;2023-05-23T10:31:57;12.60;99.90
22319;DHT22;11327;52.334;9.506;2023-05-23T10:38:55;12.50;99.90
22319;DHT22;11327;52.334;9.506;2023-05-23T10:42:34;12.40;99.90
22319;DHT22;11327;52.334;9.506;2023-05-23T10:45:53;12.40;99.90
22319;DHT22;11327;52.334;9.506;2023-05-23T10:49:14;12.30;99.90
22319;DHT22;11327;52.334;9.506;2023-05-23T10:52:39;12.30;99.90
22319;DHT22;11327;52.334;9.506;2023-05-23T10:56:01;12.30;99.90
22319;DHT22;11327;52.334;9.506;2023-05-23T10:59:25;12.30;99.90
22319;DHT22;11327;52.334;9.506;2023-05-23T11:02:53;12.20;99.90
22319;DHT22;11327;52.334;9.506;2023-05-23T11:10:13;12.40;99.90
22319;DHT22;11327;52.334;9.506;2023-05-23T11:13:57;12.40;99.90
22319;DHT22;11327;52.334;9.506;2023-05-23T11:17:30;12.30;99.90
22319;DHT22;11327;52.334;9.506;2023-05-23T11:20:53;12.20;99.90
22319;DHT22;11327;52.334;9.506;2023-05-23T11:24:14;12.20;99.90
22319;DHT22;11327;52.334;9.506;2023-05-23T11:27:39;12.20;99.90
22319;DHT22;11327;52.334;9.506;2023-05-23T11:31:01;12.20;99.90
22319;DHT22;11327;52.334;9.506;2023-05-23T11:34:25;12.20;99.90
22319;DHT22;11327;52.334;9.506;2023-05-23T11:37:45;12.20;99.90
22319;DHT22;11327;52.334;9.506;2023-05-23T11:41:07;12.20;99.90
22319;DHT22;11327;52.334;9.506;2023-05-23T11:44:27;12.20;99.90
22319;DHT22;11327;52.334;9.506;2023-05-23T11:47:48;12.20;99.90
22319;DHT22;11327;52.334;9.506;2023-05-23T11:51:09;12.30;99.90
22319;DHT22;11327;52.334;9.506;2023-05-23T11:54:30;12.60;99.90
22319;DHT22;11327;52.334;9.506;2023-05-23T11:57:54;12.70;99.90
22319;DHT22;11327;52.334;9.506;2023-05-23T12:01:15;12.90;99.90
22319;DHT22;11327;52.334;9.506;2023-05-23T12:04:36;12.90;99.90
22319;DHT22;11327;52.334;9.506;2023-05-23T12:07:58;12.90;99.90
22319;DHT22;11327;52.334;9.506;2023-05-23T12:11:20;13.00;99.90
22319;DHT22;11327;52.334;9.506;2023-05-23T12:14:42;13.20;99.90
22319;DHT22;11327;52.334;9.506;2023-05-23T12:18:06;13.40;99.90
22319;DHT22;11327;52.334;9.506;2023-05-23T12:21:47;13.50;99.90
22319;DHT22;11327;52.334;9.506;2023-05-23T12:25:08;13.40;99.90
22319;DHT22;11327;52.334;9.506;2023-05-23T12:28:36;13.50;99.90
22319;DHT22;11327;52.334;9.506;2023-05-23T12:32:00;13.60;99.90
22319;DHT22;11327;52.334;9.506;2023-05-23T12:35:24;13.80;99.90
22319;DHT22;11327;52.334;9.506;2023-05-23T12:38:45;13.80;99.90
22319;DHT22;11327;52.334;9.506;2023-05-23T12:42:06;14.00;99.90
22319;DHT22;11327;52.334;9.506;2023-05-23T12:45:33;13.80;99.90
22319;DHT22;11327;52.334;9.506;2023-05-23T12:48:54;13.90;99.90
22319;DHT22;11327;52.334;9.506;2023-05-23T12:52:15;14.10;99.90
22319;DHT22;11327;52.334;9.506;2023-05-23T12:55:35;14.40;99.90
22319;DHT22;11327;52.334;9.506;2023-05-23T12:58:56;14.50;99.90
22319;DHT22;11327;52.334;9.506;2023-05-23T13:02:17;14.40;99.90
22319;DHT22;11327;52.334;9.506;2023-05-23T13:05:38;14.50;99.90
22319;DHT22;11327;52.334;9.506;2023-05-23T13:08:58;14.60;99.90
22319;DHT22;11327;52.334;9.506;2023-05-23T13:12:19;14.50;99.90
22319;DHT22;11327;52.334;9.506;2023-05-23T13:15:40;14.60;99.90
22319;DHT22;11327;52.334;9.506;2023-05-23T13:19:01;14.70;99.90
22319;DHT22;11327;52.334;9.506;2023-05-23T13:22:22;14.90;99.90
22319;DHT22;11327;52.334;9.506;2023-05-23T13:25:42;14.80;99.90
22319;DHT22;11327;52.334;9.506;2023-05-23T13:29:04;14.90;99.90
22319;DHT22;11327;52.334;9.506;2023-05-23T13:32:25;15.00;99.90
22319;DHT22;11327;52.334;9.506;2023-05-23T13:35:46;14.90;99.90
22319;DHT22;11327;52.334;9.506;2023-05-23T13:39:08;15.20;99.90
22319;DHT22;11327;52.334;9.506;2023-05-23T13:42:29;15.10;99.90
22319;DHT22;11327;52.334;9.506;2023-05-23T13:45:50;15.10;99.90
22319;DHT22;11327;52.334;9.506;2023-05-23T13:49:11;15.10;99.90
22319;DHT22;11327;52.334;9.506;2023-05-23T13:52:31;15.50;99.90
22319;DHT22;11327;52.334;9.506;2023-05-23T13:55:52;15.70;99.90
22319;DHT22;11327;52.334;9.506;2023-05-23T13:59:14;15.90;99.90
22319;DHT22;11327;52.334;9.506;2023-05-23T14:02:36;15.90;99.90
22319;DHT22;11327;52.334;9.506;2023-05-23T14:05:57;15.80;99.90
22319;DHT22;11327;52.334;9.506;2023-05-23T14:09:18;15.60;99.90
22319;DHT22;11327;52.334;9.506;2023-05-23T14:12:39;15.30;99.90
22319;DHT22;11327;52.334;9.506;2023-05-23T14:15:59;15.10;99.90
22319;DHT22;11327;52.334;9.506;2023-05-23T14:19:20;15.20;99.90
22319;DHT22;11327;52.334;9.506;2023-05-23T14:22:41;15.20;99.90
22319;DHT22;11327;52.334;9.506;2023-05-23T14:26:02;15.20;99.90
22319;DHT22;11327;52.334;9.506;2023-05-23T14:29:23;15.00;99.90
22319;DHT22;11327;52.334;9.506;2023-05-23T14:32:43;14.90;99.90
22319;DHT22;11327;52.334;9.506;2023-05-23T14:36:04;14.80;99.90
22319;DHT22;11327;52.334;9.506;2023-05-23T14:39:25;14.80;99.90
22319;DHT22;11327;52.334;9.506;2023-05-23T14:42:48;14.80;99.90
22319;DHT22;11327;52.334;9.506;2023-05-23T14:46:09;15.00;99.90
22319;DHT22;11327;52.334;9.506;2023-05-23T14:49:29;15.00;99.90
22319;DHT22;11327;52.334;9.506;2023-05-23T14:52:50;15.00;99.90
22319;DHT22;11327;52.334;9.506;2023-05-23T14:56:11;15.10;99.90
22319;DHT22;11327;52.334;9.506;2023-05-23T14:59:31;14.80;99.90
22319;DHT22;11327;52.334;9.506;2023-05-23T15:02:52;14.90;99.90
22319;DHT22;11327;52.334;9.506;2023-05-23T15:06:13;14.80;99.90
22319;DHT22;11327;52.334;9.506;2023-05-23T15:09:33;14.80;99.90
22319;DHT22;11327;52.334;9.506;2023-05-23T15:12:54;14.90;99.90
22319;DHT22;11327;52.334;9.506;2023-05-23T15:16:15;14.80;99.90
22319;DHT22;11327;52.334;9.506;2023-05-23T15:19:37;14.90;99.90
22319;DHT22;11327;52.334;9.506;2023-05-23T15:23:01;15.00;99.90
22319;DHT22;11327;52.334;9.506;2023-05-23T15:26:22;15.30;99.90
22319;DHT22;11327;52.334;9.506;2023-05-23T15:29:45;15.40;99.90
22319;DHT22;11327;52.334;9.506;2023-05-23T15:33:05;15.40;99.90
22319;DHT22;11327;52.334;9.506;2023-05-23T15:36:26;15.40;99.90
22319;DHT22;11327;52.334;9.506;2023-05-23T15:39:47;15.30;99.90
22319;DHT22;11327;52.334;9.506;2023-05-23T15:43:08;15.20;99.90
22319;DHT22;11327;52.334;9.506;2023-05-23T15:46:29;15.00;99.90
22319;DHT22;11327;52.334;9.506;2023-05-23T15:49:50;15.00;99.90
22319;DHT22;11327;52.334;9.506;2023-05-23T15:53:10;14.90;99.90
22319;DHT22;11327;52.334;9.506;2023-05-23T15:56:31;15.00;99.90
22319;DHT22;11327;52.334;9.506;2023-05-23T15:59:52;15.10;99.90
22319;DHT22;11327;52.334;9.506;2023-05-23T16:03:12;15.00;99.90
22319;DHT22;11327;52.334;9.506;2023-05-23T16:06:33;14.90;99.90
22319;DHT22;11327;52.334;9.506;2023-05-23T16:09:54;14.90;99.90
22319;DHT22;11327;52.334;9.506;2023-05-23T16:13:15;14.80;99.90
22319;DHT22;11327;52.334;9.506;2023-05-23T16:16:35;14.80;99.90
22319;DHT22;11327;52.334;9.506;2023-05-23T16:19:56;14.90;99.90
22319;DHT22;11327;52.334;9.506;2023-05-23T16:23:17;15.10;99.90
22319;DHT22;11327;52.334;9.506;2023-05-23T16:26:38;15.20;99.90
22319;DHT22;11327;52.334;9.506;2023-05-23T16:29:59;15.60;99.90
22319;DHT22;11327;52.334;9.506;2023-05-23T16:33:20;15.70;99.90
22319;DHT22;11327;52.334;9.506;2023-05-23T16:36:41;15.90;99.90
22319;DHT22;11327;52.334;9.506;2023-05-23T16:40:02;15.80;99.90
22319;DHT22;11327;52.334;9.506;2023-05-23T16:43:23;15.30;99.90
22319;DHT22;11327;52.334;9.506;2023-05-23T16:46:44;15.10;99.90
22319;DHT22;11327;52.334;9.506;2023-05-23T16:50:06;15.10;99.90
22319;DHT22;11327;52.334;9.506;2023-05-23T16:53:27;15.10;99.90
22319;DHT22;11327;52.334;9.506;2023-05-23T16:56:48;15.00;99.90
22319;DHT22;11327;52.334;9.506;2023-05-23T17:00:10;15.10;99.90
22319;DHT22;11327;52.334;9.506;2023-05-23T17:03:31;15.20;99.90
22319;DHT22;11327;52.334;9.506;2023-05-23T17:06:51;15.00;99.90
22319;DHT22;11327;52.334;9.506;2023-05-23T17:10:12;15.00;99.90
22319;DHT22;11327;52.334;9.506;2023-05-23T17:13:33;14.90;99.90
22319;DHT22;11327;52.334;9.506;2023-05-23T17:16:54;14.90;99.90
22319;DHT22;11327;52.334;9.506;2023-05-23T17:20:15;14.80;99.90
22319;DHT22;11327;52.334;9.506;2023-05-23T17:23:35;14.80;99.90
22319;DHT22;11327;52.334;9.506;2023-05-23T17:26:57;14.70;99.90
22319;DHT22;11327;52.334;9.506;2023-05-23T17:30:18;14.70;99.90
22319;DHT22;11327;52.334;9.506;2023-05-23T17:33:38;14.60;99.90
22319;DHT22;11327;52.334;9.506;2023-05-23T17:36:59;14.60;99.90
22319;DHT22;11327;52.334;9.506;2023-05-23T17:40:20;14.50;99.90
22319;DHT22;11327;52.334;9.506;2023-05-23T17:43:41;14.40;99.90
22319;DHT22;11327;52.334;9.506;2023-05-23T17:47:02;14.40;99.90
22319;DHT22;11327;52.334;9.506;2023-05-23T17:50:23;14.40;99.90
22319;DHT22;11327;52.334;9.506;2023-05-23T17:53:44;14.30;99.90
22319;DHT22;11327;52.334;9.506;2023-05-23T17:57:04;14.30;99.90
22319;DHT22;11327;52.334;9.506;2023-05-23T18:00:26;14.20;99.90
22319;DHT22;11327;52.334;9.506;2023-05-23T18:03:46;14.00;99.90
22319;DHT22;11327;52.334;9.506;2023-05-23T18:07:11;13.90;99.90
22319;DHT22;11327;52.334;9.506;2023-05-23T18:10:32;13.70;99.90
22319;DHT22;11327;52.334;9.506;2023-05-23T18:13:53;13.50;99.90
22319;DHT22;11327;52.334;9.506;2023-05-23T18:17:13;13.50;99.90
22319;DHT22;11327;52.334;9.506;2023-05-23T18:20:34;13.40;99.90
22319;DHT22;11327;52.334;9.506;2023-05-23T18:23:55;13.30;99.90
22319;DHT22;11327;52.334;9.506;2023-05-23T18:27:17;13.20;99.90
22319;DHT22;11327;52.334;9.506;2023-05-23T18:30:37;13.10;99.90
22319;DHT22;11327;52.334;9.506;2023-05-23T18:33:58;12.90;99.90
22319;DHT22;11327;52.334;9.506;2023-05-23T18:37:19;12.90;99.90
22319;DHT22;11327;52.334;9.506;2023-05-23T18:40:39;12.90;99.90
22319;DHT22;11327;52.334;9.506;2023-05-23T18:44:00;12.80;99.90
22319;DHT22;11327;52.334;9.506;2023-05-23T18:47:21;12.60;99.90
22319;DHT22;11327;52.334;9.506;2023-05-23T18:50:42;12.40;99.90
22319;DHT22;11327;52.334;9.506;2023-05-23T18:54:03;12.40;99.90
22319;DHT22;11327;52.334;9.506;2023-05-23T18:57:23;12.30;99.90
22319;DHT22;11327;52.334;9.506;2023-05-23T19:00:45;12.30;99.90
22319;DHT22;11327;52.334;9.506;2023-05-23T19:04:06;12.20;99.90
22319;DHT22;11327;52.334;9.506;2023-05-23T19:07:26;12.20;99.90
22319;DHT22;11327;52.334;9.506;2023-05-23T19:10:47;12.10;99.90
22319;DHT22;11327;52.334;9.506;2023-05-23T19:14:08;12.00;99.90
22319;DHT22;11327;52.334;9.506;2023-05-23T19:17:29;11.90;99.90
22319;DHT22;11327;52.334;9.506;2023-05-23T19:20:50;11.90;99.90
22319;DHT22;11327;52.334;9.506;2023-05-23T19:24:11;11.90;99.90
22319;DHT22;11327;52.334;9.506;2023-05-23T19:27:32;11.80;99.90
22319;DHT22;11327;52.334;9.506;2023-05-23T19:30:53;11.70;99.90
22319;DHT22;11327;52.334;9.506;2023-05-23T19:34:13;11.60;99.90
22319;DHT22;11327;52.334;9.506;2023-05-23T19:37:34;11.60;99.90
22319;DHT22;11327;52.334;9.506;2023-05-23T19:40:55;11.50;99.90
22319;DHT22;11327;52.334;9.506;2023-05-23T19:44:15;11.50;99.90
22319;DHT22;11327;52.334;9.506;2023-05-23T19:47:36;11.30;99.90
22319;DHT22;11327;52.334;9.506;2023-05-23T19:50:57;11.30;99.90
22319;DHT22;11327;52.334;9.506;2023-05-23T19:54:18;11.30;99.90
22319;DHT22;11327;52.334;9.506;2023-05-23T19:57:39;11.20;99.90
22319;DHT22;11327;52.334;9.506;2023-05-23T20:01:00;11.20;99.90
22319;DHT22;11327;52.334;9.506;2023-05-23T20:04:21;11.10;99.90
22319;DHT22;11327;52.334;9.506;2023-05-23T20:07:44;11.00;99.90
22319;DHT22;11327;52.334;9.506;2023-05-23T20:11:05;10.90;99.90
22319;DHT22;11327;52.334;9.506;2023-05-23T20:14:25;10.90;99.90
22319;DHT22;11327;52.334;9.506;2023-05-23T20:17:46;10.90;99.90
22319;DHT22;11327;52.334;9.506;2023-05-23T20:21:07;10.90;99.90
22319;DHT22;11327;52.334;9.506;2023-05-23T20:24:28;10.90;99.90
22319;DHT22;11327;52.334;9.506;2023-05-23T20:27:50;10.80;99.90
22319;DHT22;11327;52.334;9.506;2023-05-23T20:31:11;10.70;99.90
22319;DHT22;11327;52.334;9.506;2023-05-23T20:34:32;10.60;99.90
22319;DHT22;11327;52.334;9.506;2023-05-23T20:37:52;10.70;99.90
22319;DHT22;11327;52.334;9.506;2023-05-23T20:41:13;10.60;99.90
22319;DHT22;11327;52.334;9.506;2023-05-23T20:44:37;10.50;99.90
22319;DHT22;11327;52.334;9.506;2023-05-23T20:47:58;10.40;99.90
22319;DHT22;11327;52.334;9.506;2023-05-23T20:51:19;10.40;99.90
22319;DHT22;11327;52.334;9.506;2023-05-23T20:54:40;10.30;99.90
22319;DHT22;11327;52.334;9.506;2023-05-23T20:58:02;10.40;99.90
22319;DHT22;11327;52.334;9.506;2023-05-23T21:01:22;10.40;99.90
22319;DHT22;11327;52.334;9.506;2023-05-23T21:04:43;10.30;99.90
22319;DHT22;11327;52.334;9.506;2023-05-23T21:08:04;10.30;99.90
22319;DHT22;11327;52.334;9.506;2023-05-23T21:11:25;10.30;99.90
22319;DHT22;11327;52.334;9.506;2023-05-23T21:14:46;10.30;99.90
22319;DHT22;11327;52.334;9.506;2023-05-23T21:18:07;10.20;99.90
22319;DHT22;11327;52.334;9.506;2023-05-23T21:21:27;10.20;99.90
22319;DHT22;11327;52.334;9.506;2023-05-23T21:24:48;10.20;99.90
22319;DHT22;11327;52.334;9.506;2023-05-23T21:28:09;10.10;99.90
22319;DHT22;11327;52.334;9.506;2023-05-23T21:31:30;10.00;99.90
22319;DHT22;11327;52.334;9.506;2023-05-23T21:34:51;10.00;99.90